createdAt,value
2022-12-16T00:01:26.240Z,15.20
2022-12-16T00:03:56.675Z,13.52
2022-12-16T00:06:26.008Z,14.25
2022-12-16T00:08:53.782Z,14.15
2022-12-16T00:11:22.720Z,13.90
2022-12-16T00:13:50.734Z,14.13
2022-12-16T00:16:20.530Z,13.75
2022-12-16T00:18:48.180Z,13.27
2022-12-16T00:21:18.571Z,13.75
2022-12-16T00:23:46.505Z,14.30
2022-12-16T00:26:14.282Z,13.25
2022-12-16T00:28:43.840Z,14.52
2022-12-16T00:31:12.334Z,14.48
2022-12-16T00:33:41.035Z,14.18
2022-12-16T00:36:09.269Z,13.20
2022-12-16T00:38:36.763Z,13.38
2022-12-16T00:41:04.415Z,13.85
2022-12-16T00:43:32.571Z,13.68
2022-12-16T00:46:00.686Z,12.93
2022-12-16T00:48:28.210Z,13.25
2022-12-16T00:50:55.907Z,13.02
2022-12-16T00:53:25.136Z,12.68
2022-12-16T00:56:01.294Z,13.00
2022-12-16T00:58:28.785Z,13.18
2022-12-16T01:00:56.287Z,13.00
2022-12-16T01:03:23.902Z,12.50
2022-12-16T01:05:51.550Z,13.05
2022-12-16T01:08:20.070Z,12.18
2022-12-16T01:10:55.785Z,13.32
2022-12-16T01:13:24.952Z,12.52
2022-12-16T01:15:52.677Z,12.95
2022-12-16T01:18:20.253Z,14.00
2022-12-16T01:20:47.795Z,13.57
2022-12-16T01:23:15.295Z,13.27
2022-12-16T01:25:42.878Z,13.40
2022-12-16T01:28:10.695Z,13.07
2022-12-16T01:33:05.545Z,12.05
2022-12-16T01:40:47.906Z,11.63
2022-12-16T01:43:16.890Z,12.52
2022-12-16T01:45:44.639Z,12.13
2022-12-16T01:48:45.973Z,11.65
2022-12-16T01:51:21.420Z,10.80
2022-12-16T01:56:40.473Z,9.85
2022-12-16T01:59:09.094Z,12.25
2022-12-16T02:01:37.163Z,12.93
2022-12-16T02:04:05.330Z,11.77
2022-12-16T02:06:33.152Z,11.70
2022-12-16T02:14:54.042Z,11.80
2022-12-16T02:17:32.258Z,11.27
2022-12-16T02:20:30.868Z,11.43
2022-12-16T02:23:16.895Z,11.98
2022-12-16T02:26:02.412Z,11.80
2022-12-16T02:31:53.701Z,11.77
2022-12-16T02:34:29.590Z,11.90
2022-12-16T02:37:10.246Z,11.48
2022-12-16T02:39:42.551Z,12.20
2022-12-16T02:42:35.301Z,12.90
2022-12-16T02:48:00.098Z,11.40
2022-12-16T02:50:36.396Z,11.50
2022-12-16T02:53:05.242Z,10.85
2022-12-16T02:55:59.912Z,11.68
2022-12-16T02:58:33.222Z,11.52
2022-12-16T03:04:15.293Z,10.95
2022-12-16T03:06:47.371Z,11.40
2022-12-16T03:09:20.038Z,11.27
2022-12-16T03:11:49.316Z,11.43
2022-12-16T03:14:20.472Z,11.35
2022-12-16T03:16:49.468Z,11.25
2022-12-16T03:19:20.309Z,12.48
2022-12-16T03:22:18.730Z,11.88
2022-12-16T03:24:46.626Z,9.75
2022-12-16T03:30:09.144Z,11.07
2022-12-16T03:32:39.241Z,11.15
2022-12-16T03:38:12.345Z,10.77
2022-12-16T03:40:42.555Z,11.38
2022-12-16T03:43:14.845Z,12.13
2022-12-16T03:45:45.990Z,12.13
2022-12-16T03:48:14.733Z,12.15
2022-12-16T03:53:28.131Z,13.40
2022-12-16T03:55:56.150Z,13.43
2022-12-16T03:58:23.736Z,12.95
2022-12-16T04:00:51.392Z,11.70
2022-12-16T04:03:22.719Z,12.98
2022-12-16T04:05:50.273Z,13.13
2022-12-16T04:08:17.848Z,12.70
2022-12-16T04:11:03.825Z,12.82
2022-12-16T04:13:49.688Z,12.23
2022-12-16T04:16:36.347Z,12.65
2022-12-16T04:19:22.836Z,9.73
2022-12-16T04:22:09.258Z,9.88
2022-12-16T04:27:24.540Z,11.82
2022-12-16T04:30:10.530Z,11.88
2022-12-16T04:32:56.506Z,11.75
2022-12-16T04:35:45.520Z,12.25
2022-12-16T04:38:33.921Z,13.05
2022-12-16T04:44:24.970Z,13.60
2022-12-16T04:47:11.075Z,12.93
2022-12-16T04:49:57.145Z,11.23
2022-12-16T04:52:43.876Z,13.75
2022-12-16T04:55:29.885Z,14.10
2022-12-16T05:01:21.548Z,13.43
2022-12-16T05:04:07.555Z,14.45
2022-12-16T05:06:53.678Z,13.95
2022-12-16T05:09:39.730Z,13.23
2022-12-16T05:12:25.595Z,13.23
2022-12-16T05:15:11.810Z,12.65
2022-12-16T05:17:57.910Z,13.25
2022-12-16T05:20:43.958Z,13.77
2022-12-16T05:23:30.630Z,13.57
2022-12-16T05:26:16.742Z,13.80
2022-12-16T05:29:02.732Z,14.05
2022-12-16T05:34:52.810Z,12.98
2022-12-16T05:37:38.690Z,13.95
2022-12-16T05:40:25.212Z,12.68
2022-12-16T05:43:16.514Z,13.27
2022-12-16T05:46:03.018Z,12.55
2022-12-16T05:48:49.002Z,13.50
2022-12-16T05:51:34.959Z,13.27
2022-12-16T05:54:21.068Z,13.65
2022-12-16T05:57:06.939Z,13.98
2022-12-16T05:59:52.914Z,13.95
2022-12-16T06:02:39.007Z,13.27
2022-12-16T06:05:37.980Z,13.10
2022-12-16T06:08:27.234Z,12.95
2022-12-16T06:11:13.053Z,12.50
2022-12-16T06:13:59.025Z,12.73
2022-12-16T06:16:44.978Z,12.07
2022-12-16T06:19:32.923Z,13.00
2022-12-16T06:22:18.816Z,12.35
2022-12-16T06:25:04.544Z,12.30
2022-12-16T06:27:50.705Z,13.77
2022-12-16T06:30:36.615Z,13.25
2022-12-16T06:33:25.614Z,12.63
2022-12-16T06:36:11.380Z,12.55
2022-12-16T06:38:57.580Z,12.60
2022-12-16T06:41:43.762Z,12.75
2022-12-16T06:44:30.183Z,13.15
2022-12-16T06:47:16.182Z,13.45
2022-12-16T06:50:02.109Z,13.68
2022-12-16T06:52:48.020Z,13.48
2022-12-16T06:55:34.086Z,13.48
2022-12-16T06:58:20.029Z,13.65
2022-12-16T07:01:06.519Z,13.30
2022-12-16T07:03:52.614Z,10.97
2022-12-16T07:06:38.665Z,13.73
2022-12-16T07:09:25.240Z,17.83
2022-12-16T07:12:11.149Z,14.35
2022-12-16T07:14:57.239Z,12.60
2022-12-16T07:17:43.242Z,12.52
2022-12-16T07:20:29.703Z,12.85
2022-12-16T07:23:19.646Z,12.98
2022-12-16T07:26:05.885Z,13.45
2022-12-16T07:28:52.084Z,13.13
2022-12-16T07:31:38.068Z,13.00
2022-12-16T07:34:24.872Z,13.65
2022-12-16T07:37:11.404Z,13.20
2022-12-16T07:39:57.159Z,13.48
2022-12-16T07:42:43.212Z,14.48
2022-12-16T07:45:29.735Z,15.23
2022-12-16T07:48:15.934Z,15.38
2022-12-16T07:51:01.971Z,15.65
2022-12-16T07:53:48.712Z,15.80
2022-12-16T07:56:37.376Z,16.00
2022-12-16T07:59:27.241Z,16.50
2022-12-16T08:02:18.229Z,17.02
2022-12-16T08:05:04.701Z,15.40
2022-12-16T08:07:51.298Z,14.95
2022-12-16T08:10:57.684Z,19.35
2022-12-16T08:13:43.673Z,15.05
2022-12-16T08:16:30.070Z,13.60
2022-12-16T08:19:16.190Z,15.45
2022-12-16T08:22:13.167Z,16.90
2022-12-16T08:24:59.576Z,15.65
2022-12-16T08:27:45.515Z,14.98
2022-12-16T08:30:31.510Z,15.43
2022-12-16T08:33:19.607Z,15.25
2022-12-16T08:36:06.493Z,15.57
2022-12-16T08:38:54.534Z,13.37
2022-12-16T08:41:44.231Z,15.73
2022-12-16T08:44:30.608Z,16.95
2022-12-16T08:47:19.082Z,17.25
2022-12-16T08:50:04.905Z,17.10
2022-12-16T08:52:50.782Z,18.08
2022-12-16T08:55:36.836Z,17.85
2022-12-16T08:58:22.856Z,17.80
2022-12-16T09:01:08.970Z,18.55
2022-12-16T09:03:57.698Z,19.88
2022-12-16T09:06:53.356Z,20.33
2022-12-16T09:09:39.328Z,20.17
2022-12-16T09:12:25.277Z,20.65
2022-12-16T09:15:11.316Z,20.08
2022-12-16T09:18:02.226Z,21.23
2022-12-16T09:20:48.115Z,20.92
2022-12-16T09:23:34.578Z,22.45
2022-12-16T09:26:22.853Z,23.65
2022-12-16T09:29:09.068Z,22.27
2022-12-16T09:31:55.067Z,22.58
2022-12-16T09:34:44.640Z,23.98
2022-12-16T09:37:34.028Z,24.02
2022-12-16T09:40:20.223Z,23.95
2022-12-16T09:43:12.836Z,24.85
2022-12-16T09:45:59.645Z,25.05
2022-12-16T09:48:54.959Z,21.23
2022-12-16T09:51:50.501Z,26.27
2022-12-16T09:54:45.350Z,27.15
2022-12-16T09:57:33.312Z,26.75
2022-12-16T10:00:36.310Z,27.73
2022-12-16T10:03:40.124Z,27.20
2022-12-16T10:06:51.108Z,28.83
2022-12-16T10:09:48.326Z,29.80
2022-12-16T10:12:51.262Z,29.92
2022-12-16T10:16:15.752Z,29.92
2022-12-16T10:19:56.882Z,30.63
2022-12-16T10:23:16.291Z,32.22
2022-12-16T10:26:05.039Z,33.22
2022-12-16T10:29:05.580Z,31.70
2022-12-16T10:31:56.192Z,33.03
2022-12-16T10:34:50.739Z,33.60
2022-12-16T10:37:57.887Z,33.92
2022-12-16T10:40:47.866Z,36.00
2022-12-16T10:43:47.466Z,36.35
2022-12-16T10:46:39.364Z,36.70
2022-12-16T10:49:32.762Z,39.85
2022-12-16T10:52:19.074Z,40.60
2022-12-16T10:55:16.050Z,43.20
2022-12-16T10:58:34.270Z,40.50
2022-12-16T11:01:46.484Z,42.40
2022-12-16T11:05:15.814Z,46.83
2022-12-16T11:08:04.732Z,43.53
2022-12-16T11:10:57.033Z,45.40
2022-12-16T11:13:50.238Z,46.88
2022-12-16T11:16:40.354Z,48.30
2022-12-16T11:19:47.982Z,51.45
2022-12-16T11:22:37.082Z,53.13
2022-12-16T11:25:24.846Z,50.67
2022-12-16T11:28:29.956Z,46.45
2022-12-16T11:31:24.767Z,51.28
2022-12-16T11:34:12.756Z,53.03
2022-12-16T11:37:00.334Z,51.97
2022-12-16T11:39:48.683Z,49.65
2022-12-16T11:42:55.557Z,51.45
2022-12-16T11:45:42.610Z,51.25
2022-12-16T11:48:59.226Z,53.22
2022-12-16T11:51:49.219Z,49.95
2022-12-16T11:54:53.231Z,50.15
2022-12-16T11:58:03.874Z,48.88
2022-12-16T12:00:52.456Z,47.28
2022-12-16T12:03:47.582Z,46.15
2022-12-16T12:06:48.497Z,47.08
2022-12-16T12:09:40.309Z,49.45
2022-12-16T12:12:38.024Z,50.08
2022-12-16T12:16:02.908Z,51.42
2022-12-16T12:18:52.821Z,49.55
2022-12-16T12:21:46.325Z,51.78
2022-12-16T12:25:11.673Z,52.75
2022-12-16T12:28:22.837Z,51.78
2022-12-16T12:31:56.551Z,50.35
2022-12-16T12:34:58.261Z,51.65
2022-12-16T12:37:58.576Z,51.05
2022-12-16T12:41:23.248Z,49.97
2022-12-16T12:44:36.690Z,51.83
2022-12-16T12:47:41.580Z,50.75
2022-12-16T12:51:03.132Z,51.70
2022-12-16T12:54:09.770Z,52.45
2022-12-16T12:57:07.962Z,52.50
2022-12-16T13:00:28.006Z,51.72
2022-12-16T13:03:35.208Z,54.17
2022-12-16T13:06:27.301Z,50.95
2022-12-16T13:09:17.831Z,51.70
2022-12-16T13:12:25.836Z,50.63
2022-12-16T13:15:15.273Z,52.05
2022-12-16T13:18:24.507Z,51.78
2022-12-16T13:21:15.919Z,54.08
2022-12-16T13:24:03.612Z,54.15
2022-12-16T13:26:53.822Z,52.47
2022-12-16T13:29:43.909Z,52.77
2022-12-16T13:32:42.728Z,52.63
2022-12-16T13:35:28.647Z,52.28
2022-12-16T13:38:16.151Z,52.90
2022-12-16T13:41:19.462Z,49.92
2022-12-16T13:44:14.003Z,53.22
2022-12-16T13:47:08.042Z,52.65
2022-12-16T13:50:13.229Z,51.47
2022-12-16T13:53:00.686Z,51.00
2022-12-16T13:56:18.749Z,52.15
2022-12-16T13:59:34.151Z,52.30
2022-12-16T14:02:39.797Z,50.83
2022-12-16T14:06:12.065Z,48.97
2022-12-16T14:08:58.627Z,48.22
2022-12-16T14:12:19.603Z,47.63
2022-12-16T14:15:21.575Z,48.30
2022-12-16T14:19:04.631Z,47.63
2022-12-16T14:22:03.879Z,47.25
2022-12-16T14:25:42.209Z,48.22
2022-12-16T14:29:08.432Z,44.78
2022-12-16T14:32:05.728Z,44.88
2022-12-16T14:34:55.862Z,48.47
2022-12-16T14:38:20.441Z,49.55
2022-12-16T14:41:21.814Z,46.72
2022-12-16T14:44:33.351Z,47.38
2022-12-16T14:47:39.315Z,45.00
2022-12-16T14:50:53.417Z,45.28
2022-12-16T14:54:00.718Z,45.97
2022-12-16T14:56:55.657Z,45.70
2022-12-16T14:59:44.453Z,47.28
2022-12-16T15:03:01.545Z,48.00
2022-12-16T15:08:44.356Z,46.55
2022-12-16T15:11:33.276Z,47.22
2022-12-16T15:14:23.256Z,48.75
2022-12-16T15:20:11.612Z,47.85
2022-12-16T15:23:06.383Z,53.00
2022-12-16T15:25:52.586Z,50.33
2022-12-16T15:28:55.175Z,46.65
2022-12-16T15:31:50.976Z,46.85
2022-12-16T15:35:04.794Z,45.40
2022-12-16T15:38:04.186Z,44.92
2022-12-16T15:43:57.448Z,43.83
2022-12-16T15:46:50.436Z,45.67
2022-12-16T15:49:41.490Z,47.45
2022-12-16T15:52:48.470Z,54.63
2022-12-16T15:55:53.571Z,52.30
2022-12-16T15:58:56.189Z,52.70
2022-12-16T16:01:45.281Z,59.88
2022-12-16T16:04:49.568Z,56.65
2022-12-16T16:07:38.791Z,55.55
2022-12-16T16:10:37.331Z,52.83
2022-12-16T16:13:28.136Z,53.67
2022-12-16T16:16:30.994Z,49.15
2022-12-16T16:19:28.383Z,57.40
2022-12-16T16:22:21.983Z,44.92
2022-12-16T16:25:30.273Z,45.33
2022-12-16T16:28:19.654Z,45.40
2022-12-16T16:31:06.009Z,47.35
2022-12-16T16:33:54.236Z,44.40
2022-12-16T16:37:24.166Z,43.88
2022-12-16T16:40:22.643Z,42.00
2022-12-16T16:43:12.771Z,41.10
2022-12-16T16:46:14.193Z,46.85
2022-12-16T16:49:04.034Z,50.33
2022-12-16T16:51:50.769Z,48.58
2022-12-16T16:54:54.830Z,49.42
2022-12-16T16:57:47.477Z,52.90
2022-12-16T17:00:46.815Z,54.92
2022-12-16T17:03:35.836Z,51.22
2022-12-16T17:07:01.335Z,47.92
2022-12-16T17:10:08.956Z,48.10
2022-12-16T17:13:26.030Z,54.00
2022-12-16T17:16:20.455Z,48.80
2022-12-16T17:19:33.980Z,52.03
2022-12-16T17:25:15.249Z,44.10
2022-12-16T17:28:10.858Z,49.22
2022-12-16T17:30:59.745Z,50.22
2022-12-16T17:33:56.669Z,44.38
2022-12-16T17:36:48.405Z,43.05
2022-12-16T17:39:36.738Z,42.33
2022-12-16T17:42:23.061Z,37.63
2022-12-16T17:45:14.118Z,45.42
2022-12-16T17:48:04.567Z,44.85
2022-12-16T17:50:52.691Z,44.55
2022-12-16T17:53:38.811Z,46.40
2022-12-16T17:56:31.265Z,60.70
2022-12-16T17:59:17.231Z,46.75
2022-12-16T18:02:03.887Z,54.72
2022-12-16T18:04:50.481Z,45.07
2022-12-16T18:07:38.366Z,42.10
2022-12-16T18:10:25.131Z,48.38
2022-12-16T18:13:13.351Z,43.90
2022-12-16T18:16:19.306Z,44.85
2022-12-16T18:19:08.701Z,43.10
2022-12-16T18:21:56.622Z,41.53
2022-12-16T18:24:48.221Z,45.70
2022-12-16T18:27:47.169Z,45.22
2022-12-16T18:30:35.995Z,52.15
2022-12-16T18:33:21.993Z,41.70
2022-12-16T18:36:08.603Z,45.38
2022-12-16T18:42:22.009Z,38.30
2022-12-16T18:45:10.685Z,37.53
2022-12-16T18:47:59.534Z,43.88
2022-12-16T18:50:48.609Z,39.53
2022-12-16T18:56:40.331Z,44.75
2022-12-16T18:59:28.878Z,47.92
2022-12-16T19:03:21.252Z,41.17
2022-12-16T19:06:18.580Z,38.80
2022-12-16T19:09:04.654Z,39.35
2022-12-16T19:11:54.602Z,42.00
2022-12-16T19:14:44.535Z,42.15
2022-12-16T19:17:44.250Z,48.17
2022-12-16T19:20:33.440Z,41.47
2022-12-16T19:23:27.630Z,46.35
2022-12-16T19:26:19.833Z,41.03
2022-12-16T19:29:09.728Z,41.85
2022-12-16T19:32:28.452Z,47.47
2022-12-16T19:35:15.041Z,38.80
2022-12-16T19:38:01.205Z,39.28
2022-12-16T19:40:50.746Z,36.45
2022-12-16T19:43:40.611Z,38.40
2022-12-16T19:46:29.821Z,38.80
2022-12-16T19:49:20.271Z,39.88
2022-12-16T19:52:06.315Z,39.03
2022-12-16T19:54:54.797Z,40.45
2022-12-16T19:57:44.670Z,39.72
2022-12-16T20:00:34.066Z,38.22
2022-12-16T20:03:23.228Z,36.35
2022-12-16T20:06:39.369Z,35.30
2022-12-16T20:12:43.285Z,42.38
2022-12-16T20:15:31.996Z,35.45
2022-12-16T20:18:18.015Z,36.30
2022-12-16T20:21:12.321Z,35.95
2022-12-16T20:24:00.716Z,33.22
2022-12-16T20:26:46.778Z,29.92
2022-12-16T20:29:37.481Z,30.20
2022-12-16T20:32:24.006Z,32.25
2022-12-16T20:35:10.241Z,29.10
2022-12-16T20:38:10.877Z,27.60
2022-12-16T20:40:59.233Z,22.40
2022-12-16T20:43:47.661Z,22.20
2022-12-16T20:46:36.480Z,21.65
2022-12-16T20:49:22.552Z,22.00
2022-12-16T20:52:10.539Z,21.92
2022-12-16T20:54:56.605Z,22.17
2022-12-16T20:57:57.467Z,19.75
2022-12-16T21:00:49.090Z,19.50
2022-12-16T21:03:36.078Z,18.92
2022-12-16T21:06:33.876Z,19.58
2022-12-16T21:09:20.177Z,18.02
2022-12-16T21:12:06.428Z,19.10
2022-12-16T21:15:01.068Z,18.88
2022-12-16T21:18:07.749Z,18.38
2022-12-16T21:21:18.257Z,19.60
2022-12-16T21:24:05.479Z,19.08
2022-12-16T21:26:53.848Z,18.80
2022-12-16T21:29:42.420Z,17.30
2022-12-16T21:32:37.257Z,18.85
2022-12-16T21:35:31.924Z,17.80
2022-12-16T21:38:18.589Z,15.52
2022-12-16T21:41:36.311Z,16.55
2022-12-16T21:44:58.570Z,15.68
2022-12-16T21:47:49.709Z,16.27
2022-12-16T21:50:36.164Z,14.40
2022-12-16T21:57:20.484Z,13.45
2022-12-16T22:00:11.211Z,14.02
2022-12-16T22:02:58.430Z,14.10
2022-12-16T22:05:49.178Z,12.25
2022-12-16T22:08:35.106Z,11.27
2022-12-16T22:11:28.580Z,10.95
2022-12-16T22:14:19.494Z,11.52
2022-12-16T22:17:06.045Z,12.05
2022-12-16T22:20:03.445Z,11.93
2022-12-16T22:22:49.539Z,10.75
2022-12-16T22:25:37.986Z,10.90
2022-12-16T22:28:27.153Z,9.75
2022-12-16T22:31:18.149Z,10.30
2022-12-16T22:34:20.876Z,10.60
2022-12-16T22:37:12.023Z,9.38
2022-12-16T22:40:01.986Z,9.45
2022-12-16T22:42:50.885Z,9.47
2022-12-16T22:45:47.026Z,8.25
2022-12-16T22:48:34.675Z,7.85
2022-12-16T22:51:21.284Z,8.18
2022-12-16T22:54:09.845Z,7.82
2022-12-16T22:56:56.551Z,7.97
2022-12-16T22:59:42.677Z,7.93
2022-12-16T23:02:31.378Z,7.50
2022-12-16T23:05:21.079Z,7.00
2022-12-16T23:08:13.103Z,6.85
2022-12-16T23:10:59.650Z,6.30
2022-12-16T23:13:49.701Z,6.13
2022-12-16T23:16:38.931Z,6.13
2022-12-16T23:19:25.651Z,5.88
2022-12-16T23:22:11.710Z,5.72
2022-12-16T23:24:58.060Z,5.85
2022-12-16T23:27:44.341Z,5.80
2022-12-16T23:30:32.742Z,4.68
2022-12-16T23:33:37.726Z,5.20
2022-12-16T23:36:37.305Z,4.72
2022-12-16T23:39:26.272Z,5.05
2022-12-16T23:42:19.554Z,5.05
2022-12-16T23:45:10.305Z,4.90
2022-12-16T23:48:02.444Z,4.53
2022-12-16T23:50:54.645Z,5.10
2022-12-16T23:53:42.288Z,5.03
2022-12-16T23:56:28.392Z,5.22
2022-12-16T23:59:16.941Z,5.00
